Time;durP1;ratioP1;P1;durP2;ratioP2;P2;SDS_P1;SDS_P2;PMS_P1;PMS_P2;Temp;Humidity;BMP_temperature;BMP_pressure;BME280_temperature;BME280_humidity;BME280_pressure;Samples;Min_cycle;Max_cycle;Signal;HPM_P1;HPM_P2
2023/07/31 00:01:03;;;;;;;6.70;2.22;;;;;;;;;;5099760;28;20208;-65
2023/07/31 00:03:32;;;;;;;3.47;1.92;;;;;;;;;;5096009;28;20201;-65
2023/07/31 00:06:02;;;;;;;3.75;1.98;;;;;;;;;;5102106;28;20205;-64
2023/07/31 00:08:31;;;;;;;4.55;1.85;;;;;;;;;;5080649;28;20625;-64
2023/07/31 00:11:00;;;;;;;2.17;1.60;;;;;;;;;;5096095;28;20205;-65
2023/07/31 00:13:30;;;;;;;2.22;1.90;;;;;;;;;;5096967;28;20201;-66
2023/07/31 00:16:00;;;;;;;2.42;1.80;;;;;;;;;;5092035;28;20669;-65
2023/07/31 00:18:28;;;;;;;2.20;1.73;;;;;;;;;;5096754;28;20228;-64
2023/07/31 00:20:57;;;;;;;3.95;2.00;;;;;;;;;;5079362;28;20271;-66
2023/07/31 00:23:26;;;;;;;2.88;1.90;;;;;;;;;;5100666;28;20205;-63
2023/07/31 00:25:55;;;;;;;3.08;1.80;;;;;;;;;;5093628;28;20232;-64
2023/07/31 00:28:24;;;;;;;3.13;2.00;;;;;;;;;;5095232;28;20283;-64
2023/07/31 00:30:53;;;;;;;4.95;2.10;;;;;;;;;;5096746;28;20236;-64
2023/07/31 00:33:22;;;;;;;3.92;2.00;;;;;;;;;;5075730;28;20224;-64
2023/07/31 00:35:50;;;;;;;3.72;2.72;;;;;;;;;;5098224;28;20223;-64
2023/07/31 00:38:20;;;;;;;5.40;1.88;;;;;;;;;;5088393;28;20224;-65
2023/07/31 00:40:48;;;;;;;2.33;2.10;;;;;;;;;;5096870;28;20265;-64
2023/07/31 00:43:17;;;;;;;2.10;1.90;;;;;;;;;;5100909;28;20215;-66
2023/07/31 00:45:49;;;;;;;4.32;2.20;;;;;;;;;;5094049;28;20465;-65
2023/07/31 00:48:21;;;;;;;3.45;2.05;;;;;;;;;;5097137;28;20231;-64
2023/07/31 00:50:53;;;;;;;4.60;1.85;;;;;;;;;;5101099;28;20220;-65
2023/07/31 00:53:21;;;;;;;2.13;1.80;;;;;;;;;;5092821;28;20282;-65
2023/07/31 00:55:53;;;;;;;2.15;1.80;;;;;;;;;;5094355;28;20200;-64
2023/07/31 00:58:28;;;;;;;2.50;1.80;;;;;;;;;;5095609;28;20231;-65
2023/07/31 01:00:59;;;;;;;3.42;1.80;;;;;;;;;;5100989;28;20215;-65
2023/07/31 01:03:29;;;;;;;3.45;1.92;;;;;;;;;;5098667;28;20197;-66
2023/07/31 01:06:00;;;;;;;4.20;1.80;;;;;;;;;;5086950;28;20208;-69
2023/07/31 01:08:44;;;;;;;3.13;1.80;;;;;;;;;;5100088;28;20328;-66
2023/07/31 01:11:29;;;;;;;2.53;1.80;;;;;;;;;;5070201;28;20193;-64
2023/07/31 01:13:59;;;;;;;2.63;1.80;;;;;;;;;;5094239;28;20582;-63
2023/07/31 01:16:30;;;;;;;4.50;2.15;;;;;;;;;;5089996;28;20204;-65
2023/07/31 01:18:59;;;;;;;2.50;1.63;;;;;;;;;;5092921;28;20229;-66
2023/07/31 01:21:39;;;;;;;2.10;1.85;;;;;;;;;;5088688;28;20197;-65
2023/07/31 01:24:26;;;;;;;2.63;1.85;;;;;;;;;;5088700;28;20212;-66
2023/07/31 01:26:57;;;;;;;3.42;1.95;;;;;;;;;;5096033;28;20211;-64
2023/07/31 01:29:32;;;;;;;4.07;1.88;;;;;;;;;;5079737;28;20222;-65
2023/07/31 01:32:05;;;;;;;3.33;1.70;;;;;;;;;;5091041;28;20200;-65
2023/07/31 01:34:41;;;;;;;2.72;1.90;;;;;;;;;;5099388;28;20250;-64
2023/07/31 01:37:10;;;;;;;3.10;2.10;;;;;;;;;;5097323;28;20216;-65
2023/07/31 01:39:39;;;;;;;2.75;1.70;;;;;;;;;;5086993;28;21239;-64
2023/07/31 01:42:09;;;;;;;2.83;1.52;;;;;;;;;;5093627;28;20239;-64
2023/07/31 01:44:37;;;;;;;4.45;1.65;;;;;;;;;;5096572;28;20292;-64
2023/07/31 01:47:06;;;;;;;3.40;1.63;;;;;;;;;;5088171;28;20229;-64
2023/07/31 01:49:34;;;;;;;4.13;1.98;;;;;;;;;;5093058;28;20292;-64
2023/07/31 01:52:04;;;;;;;4.00;1.70;;;;;;;;;;5090616;28;20270;-63
2023/07/31 01:54:38;;;;;;;3.45;1.75;;;;;;;;;;5094969;28;20201;-64
2023/07/31 01:57:10;;;;;;;4.13;1.80;;;;;;;;;;5076339;28;20201;-64
2023/07/31 01:59:39;;;;;;;3.80;1.70;;;;;;;;;;5091546;28;20201;-63
2023/07/31 02:02:07;;;;;;;2.05;1.67;;;;;;;;;;5093668;28;20216;-64
2023/07/31 02:04:40;;;;;;;1.90;1.70;;;;;;;;;;5084559;28;20253;-64
2023/07/31 02:07:09;;;;;;;3.83;2.17;;;;;;;;;;5093117;28;20247;-64
2023/07/31 02:09:38;;;;;;;2.80;1.92;;;;;;;;;;5088524;28;20405;-64
2023/07/31 02:12:08;;;;;;;2.22;1.70;;;;;;;;;;5086970;28;20202;-65
2023/07/31 02:14:37;;;;;;;5.60;2.00;;;;;;;;;;5090462;28;20247;-64
2023/07/31 02:17:06;;;;;;;3.65;1.80;;;;;;;;;;5086532;28;20284;-65
2023/07/31 02:19:35;;;;;;;2.88;1.83;;;;;;;;;;5095395;28;20205;-64
2023/07/31 02:22:03;;;;;;;5.88;2.10;;;;;;;;;;5096430;28;20293;-65
2023/07/31 02:24:32;;;;;;;1.83;1.67;;;;;;;;;;5076704;28;20197;-67
2023/07/31 02:27:01;;;;;;;2.55;1.63;;;;;;;;;;5090910;28;20663;-65
2023/07/31 02:29:29;;;;;;;2.70;2.20;;;;;;;;;;5085742;28;20571;-62
2023/07/31 02:31:57;;;;;;;3.65;1.88;;;;;;;;;;5089011;28;20202;-65
2023/07/31 02:34:28;;;;;;;4.28;2.05;;;;;;;;;;5085698;28;20726;-66
2023/07/31 02:37:05;;;;;;;2.45;1.77;;;;;;;;;;5087364;28;20202;-65
2023/07/31 02:39:36;;;;;;;5.30;2.00;;;;;;;;;;5091108;28;20204;-66
2023/07/31 02:42:05;;;;;;;2.20;1.92;;;;;;;;;;5088809;28;20201;-64
2023/07/31 02:44:34;;;;;;;3.25;2.00;;;;;;;;;;5094557;28;20223;-66
2023/07/31 02:47:06;;;;;;;3.10;1.77;;;;;;;;;;5085298;28;20721;-64
2023/07/31 02:49:35;;;;;;;4.25;2.28;;;;;;;;;;5088928;28;20217;-64
2023/07/31 02:52:03;;;;;;;1.90;1.80;;;;;;;;;;5095827;28;20212;-63
2023/07/31 02:54:32;;;;;;;2.58;1.90;;;;;;;;;;5092741;28;20208;-66
2023/07/31 02:57:01;;;;;;;2.47;2.00;;;;;;;;;;5087799;28;20219;-62
2023/07/31 02:59:30;;;;;;;5.30;1.88;;;;;;;;;;5095669;28;20355;-64
2023/07/31 03:01:59;;;;;;;2.78;2.10;;;;;;;;;;5090841;28;20221;-64
2023/07/31 03:04:27;;;;;;;3.13;1.83;;;;;;;;;;5092184;28;20288;-65
2023/07/31 03:06:56;;;;;;;2.85;1.80;;;;;;;;;;5076629;28;20229;-64
2023/07/31 03:09:24;;;;;;;3.22;2.00;;;;;;;;;;5090201;28;20231;-64
2023/07/31 03:11:53;;;;;;;2.20;1.73;;;;;;;;;;5091523;28;20193;-65
2023/07/31 03:14:22;;;;;;;3.17;1.88;;;;;;;;;;5088978;28;20206;-64
2023/07/31 03:16:51;;;;;;;4.13;1.80;;;;;;;;;;5096349;28;20209;-65
2023/07/31 03:19:21;;;;;;;3.95;1.90;;;;;;;;;;5103355;28;20208;-63
2023/07/31 03:21:49;;;;;;;3.22;1.70;;;;;;;;;;5097518;28;20204;-64
2023/07/31 03:24:17;;;;;;;3.10;1.98;;;;;;;;;;5095969;28;20246;-66
2023/07/31 03:26:46;;;;;;;5.10;1.88;;;;;;;;;;5096770;28;20362;-64
2023/07/31 03:29:14;;;;;;;3.97;2.10;;;;;;;;;;5095594;28;20296;-66
2023/07/31 03:31:43;;;;;;;3.25;2.00;;;;;;;;;;5094614;28;20246;-67
2023/07/31 03:34:11;;;;;;;2.47;1.85;;;;;;;;;;5094948;28;20205;-64
2023/07/31 03:36:40;;;;;;;4.05;2.00;;;;;;;;;;5092393;28;20193;-64
2023/07/31 03:39:11;;;;;;;4.90;2.28;;;;;;;;;;5088376;28;20252;-65
2023/07/31 03:41:46;;;;;;;3.78;2.05;;;;;;;;;;5093974;28;20204;-64
2023/07/31 03:44:15;;;;;;;3.30;1.90;;;;;;;;;;5090193;28;20205;-63
2023/07/31 03:46:45;;;;;;;4.10;2.05;;;;;;;;;;5091470;28;20209;-65
2023/07/31 03:49:13;;;;;;;5.43;2.25;;;;;;;;;;5074885;28;20232;-66
2023/07/31 03:51:42;;;;;;;3.58;1.95;;;;;;;;;;5092031;28;20274;-64
2023/07/31 03:54:15;;;;;;;2.30;2.10;;;;;;;;;;5097044;28;20203;-64
2023/07/31 03:56:47;;;;;;;4.80;2.58;;;;;;;;;;5091689;28;20209;-70
2023/07/31 03:59:16;;;;;;;5.78;2.10;;;;;;;;;;5091356;28;20213;-64
2023/07/31 04:01:45;;;;;;;3.88;2.20;;;;;;;;;;5086202;28;20801;-66
2023/07/31 04:04:17;;;;;;;3.95;2.10;;;;;;;;;;5083202;28;20209;-69
2023/07/31 04:06:49;;;;;;;4.75;2.20;;;;;;;;;;5084575;28;20194;-64
2023/07/31 04:09:20;;;;;;;3.80;1.98;;;;;;;;;;5089682;28;20618;-70
2023/07/31 04:11:53;;;;;;;5.40;2.20;;;;;;;;;;5093969;28;20201;-64
2023/07/31 04:14:22;;;;;;;2.47;2.10;;;;;;;;;;5077610;28;20201;-64
2023/07/31 04:16:52;;;;;;;2.90;1.73;;;;;;;;;;5087645;28;20194;-63
2023/07/31 04:19:22;;;;;;;3.70;2.42;;;;;;;;;;5093899;28;20216;-64
2023/07/31 04:21:51;;;;;;;4.93;2.08;;;;;;;;;;5086671;28;20212;-64
2023/07/31 04:24:24;;;;;;;2.00;1.90;;;;;;;;;;5085682;28;20228;-63
2023/07/31 04:26:52;;;;;;;4.47;2.17;;;;;;;;;;5089360;28;20207;-63
2023/07/31 04:29:21;;;;;;;3.63;1.98;;;;;;;;;;5080888;28;20229;-64
2023/07/31 04:31:49;;;;;;;3.00;2.10;;;;;;;;;;5087233;28;20197;-65
2023/07/31 04:34:18;;;;;;;3.83;2.00;;;;;;;;;;5085766;28;20232;-64
2023/07/31 04:36:46;;;;;;;3.42;2.08;;;;;;;;;;5086614;28;20913;-64
2023/07/31 04:39:15;;;;;;;3.70;2.00;;;;;;;;;;5090393;28;20197;-65
2023/07/31 04:41:44;;;;;;;2.42;1.90;;;;;;;;;;5082246;28;20208;-66
2023/07/31 04:44:12;;;;;;;3.38;2.10;;;;;;;;;;5086480;28;20209;-64
2023/07/31 04:46:41;;;;;;;2.15;1.80;;;;;;;;;;5088563;28;20241;-64
2023/07/31 04:49:11;;;;;;;2.50;2.00;;;;;;;;;;5063831;28;20232;-64
2023/07/31 04:51:40;;;;;;;4.03;2.33;;;;;;;;;;5093397;28;20787;-64
2023/07/31 04:54:08;;;;;;;5.50;2.10;;;;;;;;;;5087940;28;20255;-64
2023/07/31 04:56:37;;;;;;;2.90;2.20;;;;;;;;;;5090428;28;20223;-62
2023/07/31 04:59:06;;;;;;;3.63;2.25;;;;;;;;;;5090533;28;20221;-64
2023/07/31 05:01:35;;;;;;;2.00;1.77;;;;;;;;;;5092527;28;20201;-69
2023/07/31 05:04:03;;;;;;;4.72;2.42;;;;;;;;;;5090428;28;20202;-64
2023/07/31 05:06:32;;;;;;;4.80;2.15;;;;;;;;;;5091411;28;20205;-65
2023/07/31 05:09:01;;;;;;;3.47;2.30;;;;;;;;;;5098304;28;20670;-63
2023/07/31 05:11:30;;;;;;;3.80;2.08;;;;;;;;;;5092032;28;20219;-64
2023/07/31 05:14:03;;;;;;;3.67;2.15;;;;;;;;;;5091003;28;20201;-65
2023/07/31 05:16:32;;;;;;;4.28;2.08;;;;;;;;;;5094297;28;20284;-64
2023/07/31 05:19:04;;;;;;;2.85;1.90;;;;;;;;;;5090682;28;20225;-64
2023/07/31 05:21:32;;;;;;;3.25;1.80;;;;;;;;;;5091285;28;20221;-63
2023/07/31 05:24:01;;;;;;;2.95;2.17;;;;;;;;;;5090205;28;20263;-63
2023/07/31 05:26:30;;;;;;;3.50;2.25;;;;;;;;;;5089752;28;20212;-63
2023/07/31 05:29:05;;;;;;;4.70;2.38;;;;;;;;;;5090465;28;20224;-65
2023/07/31 05:31:33;;;;;;;3.63;2.25;;;;;;;;;;5073371;28;20292;-64
2023/07/31 05:34:01;;;;;;;2.92;2.00;;;;;;;;;;5092305;28;20206;-63
2023/07/31 05:36:31;;;;;;;3.20;2.35;;;;;;;;;;5091171;28;20228;-65
2023/07/31 05:39:00;;;;;;;2.90;2.25;;;;;;;;;;5086011;28;20252;-63
2023/07/31 05:41:29;;;;;;;4.93;2.30;;;;;;;;;;5085974;28;20205;-64
2023/07/31 05:43:58;;;;;;;2.10;1.90;;;;;;;;;;5086807;28;20216;-64
2023/07/31 05:46:27;;;;;;;1.88;1.65;;;;;;;;;;5091571;28;20230;-64
2023/07/31 05:48:56;;;;;;;3.17;1.85;;;;;;;;;;5091091;28;20221;-64
2023/07/31 05:51:25;;;;;;;3.53;1.85;;;;;;;;;;5080431;28;20201;-66
2023/07/31 05:53:56;;;;;;;2.13;1.80;;;;;;;;;;5087490;28;20189;-66
2023/07/31 05:56:29;;;;;;;3.22;1.85;;;;;;;;;;5090619;28;20190;-64
2023/07/31 05:58:58;;;;;;;2.13;1.70;;;;;;;;;;5082762;28;20229;-64
2023/07/31 06:01:26;;;;;;;1.95;1.70;;;;;;;;;;5078957;28;20292;-65
2023/07/31 06:03:56;;;;;;;2.20;1.63;;;;;;;;;;5081938;28;20312;-63
2023/07/31 06:06:26;;;;;;;4.05;1.90;;;;;;;;;;5088933;28;20201;-68
2023/07/31 06:08:55;;;;;;;2.38;1.65;;;;;;;;;;5091256;28;20225;-65
2023/07/31 06:11:24;;;;;;;2.53;1.80;;;;;;;;;;5079319;28;20197;-64
2023/07/31 06:13:57;;;;;;;3.35;1.80;;;;;;;;;;5072486;28;20589;-65
2023/07/31 06:16:27;;;;;;;5.57;1.70;;;;;;;;;;5090079;28;20851;-63
2023/07/31 06:18:57;;;;;;;2.88;1.75;;;;;;;;;;5069598;28;20276;-64
2023/07/31 06:21:27;;;;;;;4.05;1.70;;;;;;;;;;5087493;28;20213;-64
2023/07/31 06:23:59;;;;;;;4.63;1.90;;;;;;;;;;5090464;28;20201;-65
2023/07/31 06:26:34;;;;;;;3.38;1.90;;;;;;;;;;5073665;28;20204;-64
2023/07/31 06:29:04;;;;;;;2.75;1.70;;;;;;;;;;5090362;28;20367;-65
2023/07/31 06:31:32;;;;;;;6.15;1.98;;;;;;;;;;5092344;28;20207;-65
2023/07/31 06:34:01;;;;;;;4.20;1.92;;;;;;;;;;5068870;28;21048;-63
2023/07/31 06:36:30;;;;;;;2.05;1.83;;;;;;;;;;5085080;28;20200;-64
2023/07/31 06:38:59;;;;;;;3.38;2.22;;;;;;;;;;5085747;28;20221;-65
2023/07/31 06:41:31;;;;;;;3.05;1.73;;;;;;;;;;5085782;28;20777;-64
2023/07/31 06:44:01;;;;;;;4.47;1.80;;;;;;;;;;5086698;28;20197;-64
2023/07/31 06:46:30;;;;;;;3.45;1.95;;;;;;;;;;5084866;28;20205;-65
2023/07/31 06:48:59;;;;;;;3.03;1.92;;;;;;;;;;5096346;28;20224;-65
2023/07/31 06:51:31;;;;;;;2.35;1.67;;;;;;;;;;5083399;28;20208;-65
2023/07/31 06:54:00;;;;;;;4.18;1.73;;;;;;;;;;5083484;28;20216;-64
2023/07/31 06:56:29;;;;;;;2.38;1.77;;;;;;;;;;5096276;28;20236;-65
2023/07/31 06:58:58;;;;;;;3.63;2.20;;;;;;;;;;5090085;28;20256;-64
2023/07/31 07:01:27;;;;;;;4.05;2.22;;;;;;;;;;5090401;28;20277;-64
2023/07/31 07:03:57;;;;;;;1.92;1.73;;;;;;;;;;5089927;28;20231;-64
2023/07/31 07:06:25;;;;;;;2.08;1.80;;;;;;;;;;5084049;28;20209;-65
2023/07/31 07:08:58;;;;;;;5.13;2.10;;;;;;;;;;5091486;28;20224;-65
2023/07/31 07:11:27;;;;;;;2.38;1.70;;;;;;;;;;5087455;28;20243;-62
2023/07/31 07:13:56;;;;;;;4.28;2.17;;;;;;;;;;5082328;28;20255;-64
2023/07/31 07:16:26;;;;;;;3.05;2.00;;;;;;;;;;5068367;28;20197;-69
2023/07/31 07:18:57;;;;;;;4.30;1.80;;;;;;;;;;5094406;28;20254;-65
2023/07/31 07:21:31;;;;;;;2.55;1.83;;;;;;;;;;5090121;28;20654;-67
2023/07/31 07:24:01;;;;;;;6.72;2.22;;;;;;;;;;5086763;28;20197;-64
2023/07/31 07:26:29;;;;;;;6.43;1.98;;;;;;;;;;5081635;28;20268;-65
2023/07/31 07:28:58;;;;;;;2.40;1.70;;;;;;;;;;5083730;28;20352;-64
2023/07/31 07:31:29;;;;;;;4.93;2.00;;;;;;;;;;5084512;28;20236;-64
2023/07/31 07:33:57;;;;;;;5.72;2.08;;;;;;;;;;5091906;28;20294;-65
2023/07/31 07:36:29;;;;;;;3.60;2.45;;;;;;;;;;5087987;28;20201;-64
2023/07/31 07:38:58;;;;;;;3.13;2.20;;;;;;;;;;5086766;28;20221;-64
2023/07/31 07:41:27;;;;;;;4.15;2.58;;;;;;;;;;5086633;28;20201;-64
2023/07/31 07:43:55;;;;;;;2.92;1.90;;;;;;;;;;5093090;28;20288;-66
2023/07/31 07:46:23;;;;;;;3.65;2.20;;;;;;;;;;5086010;28;20284;-64
2023/07/31 07:48:53;;;;;;;2.80;1.90;;;;;;;;;;5089802;28;20694;-64
2023/07/31 07:51:22;;;;;;;2.22;2.00;;;;;;;;;;5072052;28;20284;-65
2023/07/31 07:53:51;;;;;;;3.45;2.05;;;;;;;;;;5093159;28;20201;-64
2023/07/31 07:56:20;;;;;;;2.95;2.00;;;;;;;;;;5067748;28;20204;-63
2023/07/31 07:58:51;;;;;;;5.15;2.10;;;;;;;;;;5086515;28;20225;-64
2023/07/31 08:01:21;;;;;;;4.75;2.35;;;;;;;;;;5071161;28;20197;-65
2023/07/31 08:03:50;;;;;;;5.03;2.10;;;;;;;;;;5087037;28;20224;-64
2023/07/31 08:06:19;;;;;;;4.55;2.20;;;;;;;;;;5093589;28;20209;-64
2023/07/31 08:08:51;;;;;;;3.10;2.10;;;;;;;;;;5101722;28;20309;-65
2023/07/31 08:11:20;;;;;;;5.28;2.35;;;;;;;;;;5091425;28;20225;-66
2023/07/31 08:13:51;;;;;;;4.68;2.20;;;;;;;;;;5086266;28;20198;-64
2023/07/31 08:16:20;;;;;;;4.57;2.45;;;;;;;;;;5092507;28;20208;-64
2023/07/31 08:18:50;;;;;;;3.97;2.20;;;;;;;;;;5077667;28;20228;-64
2023/07/31 08:21:19;;;;;;;3.60;2.20;;;;;;;;;;5092400;28;20205;-65
2023/07/31 08:23:57;;;;;;;3.63;1.95;;;;;;;;;;5072730;28;20198;-68
2023/07/31 08:26:29;;;;;;;5.20;2.30;;;;;;;;;;5089214;28;20205;-64
2023/07/31 08:28:58;;;;;;;5.15;2.17;;;;;;;;;;5083282;28;20234;-64
2023/07/31 08:31:26;;;;;;;6.22;2.53;;;;;;;;;;5085572;28;20209;-63
2023/07/31 08:33:55;;;;;;;3.30;2.20;;;;;;;;;;5087045;28;20217;-64
2023/07/31 08:36:24;;;;;;;7.32;2.33;;;;;;;;;;5090224;28;20214;-64
2023/07/31 08:38:57;;;;;;;4.88;2.47;;;;;;;;;;5086159;28;20220;-65
2023/07/31 08:41:25;;;;;;;5.80;2.30;;;;;;;;;;5089493;28;20229;-64
2023/07/31 08:43:59;;;;;;;2.53;1.90;;;;;;;;;;5091474;28;20225;-64
2023/07/31 08:46:28;;;;;;;4.03;2.25;;;;;;;;;;5089972;28;20194;-65
2023/07/31 08:48:58;;;;;;;5.13;2.13;;;;;;;;;;5075150;28;20221;-64
2023/07/31 08:51:27;;;;;;;4.95;2.50;;;;;;;;;;5087464;28;20238;-66
2023/07/31 08:53:58;;;;;;;3.58;2.20;;;;;;;;;;5070344;28;20240;-64
2023/07/31 08:56:27;;;;;;;5.88;2.60;;;;;;;;;;5099874;28;20201;-63
2023/07/31 08:58:55;;;;;;;4.50;2.20;;;;;;;;;;5091218;28;20214;-64
2023/07/31 09:01:24;;;;;;;6.00;2.15;;;;;;;;;;5086518;28;20214;-65
2023/07/31 09:03:55;;;;;;;6.38;2.10;;;;;;;;;;5083837;28;20231;-68
2023/07/31 09:06:25;;;;;;;4.20;2.00;;;;;;;;;;5087457;28;20205;-66
2023/07/31 09:08:56;;;;;;;4.60;2.03;;;;;;;;;;5070579;28;20253;-65
2023/07/31 09:11:26;;;;;;;3.75;2.20;;;;;;;;;;5085136;28;20294;-64
2023/07/31 09:14:01;;;;;;;4.75;2.20;;;;;;;;;;5068536;28;20237;-66
2023/07/31 09:16:31;;;;;;;3.53;2.65;;;;;;;;;;5083054;28;20204;-64
2023/07/31 09:19:01;;;;;;;3.70;2.33;;;;;;;;;;5082489;28;20227;-65
2023/07/31 09:21:31;;;;;;;2.42;2.05;;;;;;;;;;5084392;28;20197;-64
2023/07/31 09:23:59;;;;;;;5.13;2.40;;;;;;;;;;5090283;28;20228;-66
2023/07/31 09:26:38;;;;;;;4.75;2.63;;;;;;;;;;5088451;28;20275;-66
2023/07/31 09:29:19;;;;;;;6.10;2.10;;;;;;;;;;5089388;28;20279;-64
2023/07/31 09:31:54;;;;;;;4.95;2.40;;;;;;;;;;5082778;28;20204;-65
2023/07/31 09:34:31;;;;;;;3.70;2.00;;;;;;;;;;5093444;28;20642;-66
2023/07/31 09:37:02;;;;;;;3.63;2.47;;;;;;;;;;5085979;28;20197;-64
2023/07/31 09:39:31;;;;;;;2.67;1.80;;;;;;;;;;5072942;28;20197;-67
2023/07/31 09:41:59;;;;;;;3.90;2.20;;;;;;;;;;5094729;28;20250;-65
2023/07/31 09:44:39;;;;;;;2.30;1.90;;;;;;;;;;5087149;28;20272;-65
2023/07/31 09:47:21;;;;;;;3.05;1.85;;;;;;;;;;5087289;28;20679;-64
2023/07/31 09:49:51;;;;;;;2.85;2.03;;;;;;;;;;5088412;28;20213;-63
2023/07/31 09:52:19;;;;;;;3.67;1.95;;;;;;;;;;5054723;28;20218;-65
2023/07/31 09:54:49;;;;;;;4.38;1.95;;;;;;;;;;5068050;28;20561;-64
2023/07/31 09:57:23;;;;;;;4.68;2.40;;;;;;;;;;5069755;28;20221;-65
2023/07/31 09:59:58;;;;;;;3.72;2.03;;;;;;;;;;5073227;28;20244;-65
2023/07/31 10:02:28;;;;;;;3.53;1.90;;;;;;;;;;5092603;28;20269;-64
2023/07/31 10:05:06;;;;;;;3.33;2.15;;;;;;;;;;5092742;28;20200;-64
2023/07/31 10:07:42;;;;;;;1.95;1.63;;;;;;;;;;5085791;28;21052;-64
2023/07/31 10:10:12;;;;;;;2.95;1.85;;;;;;;;;;5085658;28;20208;-64
2023/07/31 10:12:42;;;;;;;4.68;1.73;;;;;;;;;;5066693;28;20330;-64
2023/07/31 10:15:11;;;;;;;3.30;1.80;;;;;;;;;;5063655;28;20200;-66
2023/07/31 10:17:41;;;;;;;2.88;2.03;;;;;;;;;;5077716;28;20213;-65
2023/07/31 10:20:14;;;;;;;3.92;1.70;;;;;;;;;;5084782;28;20209;-65
2023/07/31 10:22:43;;;;;;;4.97;2.10;;;;;;;;;;5067930;28;20240;-65
2023/07/31 10:25:17;;;;;;;3.53;1.98;;;;;;;;;;5083414;28;20210;-64
2023/07/31 10:27:48;;;;;;;3.58;2.28;;;;;;;;;;5085789;28;20229;-64
2023/07/31 10:30:18;;;;;;;3.38;1.90;;;;;;;;;;5076806;28;20232;-64
2023/07/31 10:32:49;;;;;;;2.63;1.85;;;;;;;;;;5070667;28;20212;-64
2023/07/31 10:35:22;;;;;;;3.00;1.80;;;;;;;;;;5072637;28;20745;-65
2023/07/31 10:37:54;;;;;;;2.88;1.70;;;;;;;;;;5094112;28;20232;-65
2023/07/31 10:40:28;;;;;;;2.30;1.77;;;;;;;;;;5084114;28;20205;-64
2023/07/31 10:42:58;;;;;;;4.15;2.00;;;;;;;;;;5070954;28;20202;-64
2023/07/31 10:45:36;;;;;;;4.80;1.98;;;;;;;;;;5083733;28;20221;-65
2023/07/31 10:48:09;;;;;;;3.13;1.85;;;;;;;;;;5093720;28;20307;-63
2023/07/31 10:50:54;;;;;;;5.05;1.85;;;;;;;;;;5085082;28;20240;-67
2023/07/31 10:53:26;;;;;;;3.42;1.80;;;;;;;;;;5089388;28;20611;-66
2023/07/31 10:56:24;;;;;;;1.77;1.67;;;;;;;;;;5075722;28;20200;-66
2023/07/31 10:59:02;;;;;;;3.13;1.88;;;;;;;;;;5091002;28;20216;-65
2023/07/31 11:01:52;;;;;;;3.13;2.05;;;;;;;;;;5076923;28;20205;-66
2023/07/31 11:04:25;;;;;;;3.83;2.05;;;;;;;;;;5086397;28;20206;-67
2023/07/31 11:07:08;;;;;;;2.65;1.90;;;;;;;;;;5090252;28;20197;-66
2023/07/31 11:09:38;;;;;;;2.90;1.88;;;;;;;;;;5067728;28;20202;-65
2023/07/31 11:12:09;;;;;;;4.32;2.20;;;;;;;;;;5092529;28;20221;-66
2023/07/31 11:14:42;;;;;;;3.30;1.88;;;;;;;;;;5072305;28;20211;-63
2023/07/31 11:17:12;;;;;;;4.60;2.03;;;;;;;;;;5093221;28;20287;-64
2023/07/31 11:19:51;;;;;;;4.30;2.00;;;;;;;;;;5095109;28;20233;-69
2023/07/31 11:22:20;;;;;;;2.33;1.95;;;;;;;;;;5085543;28;20740;-65
2023/07/31 11:24:49;;;;;;;3.22;2.38;;;;;;;;;;5090803;28;20201;-66
2023/07/31 11:27:21;;;;;;;3.65;2.13;;;;;;;;;;5074610;28;20230;-65
2023/07/31 11:29:52;;;;;;;2.45;2.25;;;;;;;;;;5090274;28;20209;-65
2023/07/31 11:32:27;;;;;;;4.68;2.63;;;;;;;;;;5087388;28;20200;-65
2023/07/31 11:34:57;;;;;;;3.80;2.22;;;;;;;;;;5072111;28;20224;-65
2023/07/31 11:37:45;;;;;;;3.58;2.47;;;;;;;;;;5088432;28;20259;-66
2023/07/31 11:40:15;;;;;;;3.85;2.25;;;;;;;;;;5079852;28;20233;-65
2023/07/31 11:42:47;;;;;;;4.30;2.40;;;;;;;;;;5080102;28;20663;-65
2023/07/31 11:45:17;;;;;;;2.58;2.38;;;;;;;;;;5093673;28;20197;-64
2023/07/31 11:47:47;;;;;;;5.15;2.47;;;;;;;;;;5080889;28;20604;-65
2023/07/31 11:50:16;;;;;;;3.22;2.15;;;;;;;;;;5095417;28;20248;-67
2023/07/31 11:52:49;;;;;;;2.90;2.17;;;;;;;;;;5076375;28;20201;-66
2023/07/31 11:55:24;;;;;;;3.15;2.08;;;;;;;;;;5074040;28;20231;-65
2023/07/31 11:57:58;;;;;;;2.58;2.20;;;;;;;;;;5076489;28;20233;-66
2023/07/31 12:00:28;;;;;;;2.67;1.90;;;;;;;;;;5084258;28;20208;-66
2023/07/31 12:03:00;;;;;;;3.00;1.95;;;;;;;;;;5078550;28;20221;-65
2023/07/31 12:05:36;;;;;;;3.85;2.28;;;;;;;;;;5079858;28;20359;-64
2023/07/31 12:08:23;;;;;;;4.30;2.83;;;;;;;;;;5081432;28;20235;-65
2023/07/31 12:11:17;;;;;;;2.28;2.08;;;;;;;;;;5074150;28;20237;-64
2023/07/31 12:14:04;;;;;;;3.60;2.35;;;;;;;;;;5091332;28;20244;-64
2023/07/31 12:16:37;;;;;;;4.80;2.42;;;;;;;;;;5097953;28;20204;-68
2023/07/31 12:19:08;;;;;;;3.70;2.50;;;;;;;;;;5074630;28;20251;-65
2023/07/31 12:21:38;;;;;;;5.32;2.67;;;;;;;;;;5075534;28;20659;-65
2023/07/31 12:24:07;;;;;;;2.42;2.20;;;;;;;;;;5087044;28;20197;-65
2023/07/31 12:26:37;;;;;;;4.18;2.45;;;;;;;;;;5078418;28;20209;-65
2023/07/31 12:29:08;;;;;;;3.05;2.65;;;;;;;;;;5084907;28;20228;-65
2023/07/31 12:31:37;;;;;;;3.67;2.17;;;;;;;;;;5042083;28;20259;-66
2023/07/31 12:34:15;;;;;;;2.97;2.20;;;;;;;;;;5094627;28;20204;-65
2023/07/31 12:36:48;;;;;;;3.10;2.40;;;;;;;;;;5076726;28;20204;-65
2023/07/31 12:39:18;;;;;;;3.47;2.40;;;;;;;;;;5074876;28;20284;-66
2023/07/31 12:41:54;;;;;;;3.83;2.20;;;;;;;;;;5096891;28;20215;-66
2023/07/31 12:44:26;;;;;;;3.58;2.20;;;;;;;;;;5083433;28;20206;-67
2023/07/31 12:46:58;;;;;;;2.33;2.13;;;;;;;;;;5093559;28;20204;-64
2023/07/31 12:49:27;;;;;;;3.42;2.38;;;;;;;;;;5078222;28;20308;-65
2023/07/31 12:52:00;;;;;;;3.92;2.60;;;;;;;;;;5091426;28;20226;-65
2023/07/31 12:54:29;;;;;;;3.15;2.45;;;;;;;;;;5097407;28;20929;-65
2023/07/31 12:56:59;;;;;;;4.18;2.60;;;;;;;;;;5095095;28;20202;-66
2023/07/31 12:59:37;;;;;;;4.80;2.53;;;;;;;;;;5071793;28;20206;-65
2023/07/31 13:02:08;;;;;;;4.82;2.80;;;;;;;;;;5092881;28;20228;-66
2023/07/31 13:04:37;;;;;;;3.58;2.78;;;;;;;;;;5099481;28;20213;-65
2023/07/31 13:07:06;;;;;;;3.78;2.25;;;;;;;;;;5070784;28;20241;-70
2023/07/31 13:09:37;;;;;;;5.25;2.50;;;;;;;;;;5084208;28;20231;-66
2023/07/31 13:12:07;;;;;;;3.47;2.45;;;;;;;;;;5093256;28;20312;-65
2023/07/31 13:14:39;;;;;;;3.85;2.65;;;;;;;;;;5084012;28;20227;-66
2023/07/31 13:17:12;;;;;;;3.28;2.45;;;;;;;;;;5097117;28;20201;-63
2023/07/31 13:19:44;;;;;;;3.40;2.70;;;;;;;;;;5077374;28;20201;-65
2023/07/31 13:22:15;;;;;;;2.78;2.47;;;;;;;;;;5085755;28;20213;-65
2023/07/31 13:24:44;;;;;;;3.25;2.42;;;;;;;;;;5079719;28;20232;-66
2023/07/31 13:27:16;;;;;;;4.22;2.78;;;;;;;;;;5089538;28;20232;-64
2023/07/31 13:29:55;;;;;;;3.65;2.60;;;;;;;;;;5079539;28;20224;-65
2023/07/31 13:32:25;;;;;;;2.80;2.40;;;;;;;;;;5086526;28;20311;-65
2023/07/31 13:34:55;;;;;;;3.45;2.67;;;;;;;;;;5091518;28;20662;-65
2023/07/31 13:37:29;;;;;;;3.38;2.63;;;;;;;;;;5097025;28;20297;-66
2023/07/31 13:40:04;;;;;;;3.90;2.67;;;;;;;;;;5094714;28;20218;-66
2023/07/31 13:42:33;;;;;;;5.43;2.70;;;;;;;;;;5086580;28;20213;-65
2023/07/31 13:45:05;;;;;;;5.90;2.95;;;;;;;;;;5095646;28;20250;-65
2023/07/31 13:47:40;;;;;;;3.83;2.80;;;;;;;;;;5088723;28;20248;-64
2023/07/31 13:50:10;;;;;;;4.63;2.67;;;;;;;;;;5091600;28;20261;-64
2023/07/31 13:52:40;;;;;;;6.32;4.30;;;;;;;;;;5076038;28;20227;-66
2023/07/31 13:55:10;;;;;;;3.33;2.70;;;;;;;;;;5088036;28;20209;-66
2023/07/31 13:57:39;;;;;;;3.08;2.58;;;;;;;;;;5091177;28;20252;-67
2023/07/31 14:00:11;;;;;;;3.40;3.10;;;;;;;;;;5089866;28;20205;-65
2023/07/31 14:02:48;;;;;;;2.75;2.40;;;;;;;;;;5071111;28;20223;-66
2023/07/31 14:05:20;;;;;;;4.20;2.80;;;;;;;;;;5078638;28;20205;-65
2023/07/31 14:07:50;;;;;;;3.53;2.58;;;;;;;;;;5085370;28;20225;-65
2023/07/31 14:10:31;;;;;;;4.35;2.88;;;;;;;;;;5074594;28;21079;-66
2023/07/31 14:13:00;;;;;;;3.75;2.58;;;;;;;;;;5094607;28;20198;-64
2023/07/31 14:15:29;;;;;;;3.92;3.10;;;;;;;;;;5068726;28;20261;-65
2023/07/31 14:18:01;;;;;;;4.68;2.88;;;;;;;;;;5072057;28;20675;-68
2023/07/31 14:20:36;;;;;;;4.35;2.75;;;;;;;;;;5089465;28;20660;-65
2023/07/31 14:23:06;;;;;;;5.65;2.63;;;;;;;;;;5055144;28;20227;-64
2023/07/31 14:25:36;;;;;;;4.22;2.90;;;;;;;;;;5090871;28;20292;-65
2023/07/31 14:28:07;;;;;;;4.28;3.15;;;;;;;;;;5060058;28;20217;-64
2023/07/31 14:30:43;;;;;;;3.17;2.60;;;;;;;;;;5091997;28;20197;-66
2023/07/31 14:33:18;;;;;;;3.30;2.53;;;;;;;;;;5096937;28;20273;-65
2023/07/31 14:35:53;;;;;;;4.28;3.22;;;;;;;;;;5090514;28;20201;-65
2023/07/31 14:38:33;;;;;;;3.33;3.00;;;;;;;;;;5094207;28;20224;-66
2023/07/31 14:41:06;;;;;;;5.53;2.70;;;;;;;;;;5088515;28;20190;-66
2023/07/31 14:43:39;;;;;;;4.18;2.58;;;;;;;;;;5058644;28;20665;-64
2023/07/31 14:46:09;;;;;;;5.35;2.80;;;;;;;;;;5089285;28;20213;-65
2023/07/31 14:48:43;;;;;;;4.18;2.83;;;;;;;;;;5103338;28;20218;-66
2023/07/31 14:51:12;;;;;;;4.63;3.10;;;;;;;;;;5086948;28;20250;-66
2023/07/31 14:53:40;;;;;;;2.88;2.50;;;;;;;;;;5064124;28;20213;-65
2023/07/31 14:56:07;;;;;;;5.25;2.90;;;;;;;;;;5074975;28;20648;-64
2023/07/31 14:58:35;;;;;;;5.40;2.90;;;;;;;;;;5075092;28;20724;-64
2023/07/31 15:01:02;;;;;;;3.95;2.88;;;;;;;;;;5072811;28;20231;-65
2023/07/31 15:03:30;;;;;;;5.35;3.10;;;;;;;;;;5069750;28;20583;-67
2023/07/31 15:05:57;;;;;;;3.58;2.63;;;;;;;;;;5066025;28;20215;-64